Terminal Aerodrome Forecast
Issued by NWS

Home | Current Version | Previous Version | Text Only | Print | Product List | Glossary On
Versions: 1 2 3 4 5 6 7 8 9 10 11 12 13 14 15 16 17 18
000
FTUS45 KFGZ 161700
TAFPGA
TAF
KPGA 161720Z 1618/1718 29006KT P6SM SCT100 BKN150
     FM161900 33010G18KT P6SM SCT100 BKN150
     FM170000 33008KT P6SM SCT250
     FM170600 VRB05KT P6SM SCT250=

USA.gov is the U.S. government's official web portal to all federal, state and local government web resources and services.